sensor_id;sensor_type;location;lat;lon;timestamp;pressure;altitude;pressure_sealevel;temperature;humidity
53659;BME280;41524;35.624;139.698;2024-02-26T00:00:16;101075.00;;;8.51;42.57
53659;BME280;41524;35.624;139.698;2024-02-26T00:05:10;101067.00;;;8.11;42.44
53659;BME280;41524;35.624;139.698;2024-02-26T00:10:10;101076.00;;;7.60;42.10
53659;BME280;41524;35.624;139.698;2024-02-26T00:15:11;101079.00;;;8.64;40.83
53659;BME280;41524;35.624;139.698;2024-02-26T00:20:11;101073.00;;;7.86;40.17
53659;BME280;41524;35.624;139.698;2024-02-26T00:25:11;101068.00;;;8.41;40.27
53659;BME280;41524;35.624;139.698;2024-02-26T00:30:11;101069.00;;;7.80;40.02
53659;BME280;41524;35.624;139.698;2024-02-26T00:35:11;101079.00;;;7.94;39.65
53659;BME280;41524;35.624;139.698;2024-02-26T00:40:10;101080.00;;;8.16;39.70
53659;BME280;41524;35.624;139.698;2024-02-26T00:45:10;101079.00;;;8.10;39.55
53659;BME280;41524;35.624;139.698;2024-02-26T00:50:11;101065.00;;;8.13;39.98
53659;BME280;41524;35.624;139.698;2024-02-26T00:55:10;101053.00;;;8.45;39.71
53659;BME280;41524;35.624;139.698;2024-02-26T01:00:12;101061.00;;;8.53;39.50
53659;BME280;41524;35.624;139.698;2024-02-26T01:05:10;101058.00;;;8.94;38.48
53659;BME280;41524;35.624;139.698;2024-02-26T01:10:11;101042.00;;;8.86;38.25
53659;BME280;41524;35.624;139.698;2024-02-26T01:15:11;101046.00;;;10.42;38.08
53659;BME280;41524;35.624;139.698;2024-02-26T01:20:11;101054.00;;;9.75;36.56
53659;BME280;41524;35.624;139.698;2024-02-26T01:25:11;101058.00;;;8.99;37.62
53659;BME280;41524;35.624;139.698;2024-02-26T01:30:14;101062.00;;;8.65;37.35
53659;BME280;41524;35.624;139.698;2024-02-26T01:35:11;101063.00;;;9.32;37.95
53659;BME280;41524;35.624;139.698;2024-02-26T01:40:12;101060.00;;;8.85;36.98
53659;BME280;41524;35.624;139.698;2024-02-26T01:45:15;101056.00;;;8.94;37.11
53659;BME280;41524;35.624;139.698;2024-02-26T01:50:10;101048.00;;;9.00;36.76
53659;BME280;41524;35.624;139.698;2024-02-26T01:55:10;101055.00;;;9.30;36.78
53659;BME280;41524;35.624;139.698;2024-02-26T02:00:11;101048.00;;;10.25;36.09
53659;BME280;41524;35.624;139.698;2024-02-26T02:05:12;101053.00;;;9.61;36.96
53659;BME280;41524;35.624;139.698;2024-02-26T02:10:10;101045.00;;;9.80;36.20
53659;BME280;41524;35.624;139.698;2024-02-26T02:15:10;101051.00;;;9.86;36.38
53659;BME280;41524;35.624;139.698;2024-02-26T02:20:15;101017.00;;;10.04;36.17
53659;BME280;41524;35.624;139.698;2024-02-26T02:25:11;100996.00;;;9.98;36.43
53659;BME280;41524;35.624;139.698;2024-02-26T02:30:11;101001.00;;;10.30;36.89
53659;BME280;41524;35.624;139.698;2024-02-26T02:35:10;100989.00;;;11.30;34.91
53659;BME280;41524;35.624;139.698;2024-02-26T02:40:11;100980.00;;;9.93;35.29
53659;BME280;41524;35.624;139.698;2024-02-26T02:45:11;100989.00;;;10.17;34.29
53659;BME280;41524;35.624;139.698;2024-02-26T02:50:11;100983.00;;;9.31;35.25
53659;BME280;41524;35.624;139.698;2024-02-26T02:55:10;100992.00;;;11.40;33.47
53659;BME280;41524;35.624;139.698;2024-02-26T03:00:12;100979.00;;;10.89;32.76
53659;BME280;41524;35.624;139.698;2024-02-26T03:05:12;100993.00;;;10.18;32.69
53659;BME280;41524;35.624;139.698;2024-02-26T03:10:17;100989.00;;;9.85;33.81
53659;BME280;41524;35.624;139.698;2024-02-26T03:15:11;100984.00;;;10.45;34.04
53659;BME280;41524;35.624;139.698;2024-02-26T03:20:11;100967.00;;;9.80;35.53
53659;BME280;41524;35.624;139.698;2024-02-26T03:25:10;100956.00;;;10.47;35.26
53659;BME280;41524;35.624;139.698;2024-02-26T03:30:11;100958.00;;;10.57;34.39
53659;BME280;41524;35.624;139.698;2024-02-26T03:35:11;100952.00;;;10.83;33.88
53659;BME280;41524;35.624;139.698;2024-02-26T03:40:11;100945.00;;;12.00;32.98
53659;BME280;41524;35.624;139.698;2024-02-26T03:45:11;100950.00;;;11.32;32.70
53659;BME280;41524;35.624;139.698;2024-02-26T03:50:10;100946.00;;;11.08;33.19
53659;BME280;41524;35.624;139.698;2024-02-26T03:55:11;100938.00;;;10.95;33.22
53659;BME280;41524;35.624;139.698;2024-02-26T04:00:11;100939.00;;;11.42;32.41
53659;BME280;41524;35.624;139.698;2024-02-26T04:05:11;100942.00;;;10.64;32.71
53659;BME280;41524;35.624;139.698;2024-02-26T04:10:12;100925.00;;;11.25;31.51
53659;BME280;41524;35.624;139.698;2024-02-26T04:15:12;100923.00;;;10.85;31.28
53659;BME280;41524;35.624;139.698;2024-02-26T04:20:15;100914.00;;;12.47;30.93
53659;BME280;41524;35.624;139.698;2024-02-26T04:25:11;100907.00;;;11.95;30.19
53659;BME280;41524;35.624;139.698;2024-02-26T04:30:15;100914.00;;;11.44;31.73
53659;BME280;41524;35.624;139.698;2024-02-26T04:35:11;100918.00;;;12.10;31.18
53659;BME280;41524;35.624;139.698;2024-02-26T04:40:12;100926.00;;;10.78;31.84
53659;BME280;41524;35.624;139.698;2024-02-26T04:45:11;100950.00;;;10.70;31.79
53659;BME280;41524;35.624;139.698;2024-02-26T04:50:11;100944.00;;;12.68;30.51
53659;BME280;41524;35.624;139.698;2024-02-26T04:55:11;100937.00;;;10.88;31.84
53659;BME280;41524;35.624;139.698;2024-02-26T05:00:11;100938.00;;;10.50;31.68
53659;BME280;41524;35.624;139.698;2024-02-26T05:05:10;100946.00;;;10.75;31.79
53659;BME280;41524;35.624;139.698;2024-02-26T05:10:10;100957.00;;;9.45;31.76
53659;BME280;41524;35.624;139.698;2024-02-26T05:15:11;100962.00;;;10.64;30.17
53659;BME280;41524;35.624;139.698;2024-02-26T05:20:11;100962.00;;;10.92;30.66
53659;BME280;41524;35.624;139.698;2024-02-26T05:25:10;100949.00;;;11.16;30.24
53659;BME280;41524;35.624;139.698;2024-02-26T05:30:11;100956.00;;;11.10;29.94
53659;BME280;41524;35.624;139.698;2024-02-26T05:35:10;100973.00;;;11.03;30.05
53659;BME280;41524;35.624;139.698;2024-02-26T05:40:12;100979.00;;;10.94;30.19
53659;BME280;41524;35.624;139.698;2024-02-26T05:45:11;100977.00;;;10.49;30.12
53659;BME280;41524;35.624;139.698;2024-02-26T05:50:12;100981.00;;;10.19;30.04
53659;BME280;41524;35.624;139.698;2024-02-26T05:55:11;100988.00;;;11.06;29.34
53659;BME280;41524;35.624;139.698;2024-02-26T06:00:15;101004.00;;;10.75;29.91
53659;BME280;41524;35.624;139.698;2024-02-26T06:05:12;101026.00;;;9.73;30.36
53659;BME280;41524;35.624;139.698;2024-02-26T06:10:11;101028.00;;;9.62;30.51
53659;BME280;41524;35.624;139.698;2024-02-26T06:15:11;101035.00;;;9.99;30.38
53659;BME280;41524;35.624;139.698;2024-02-26T06:20:15;101037.00;;;11.36;29.52
53659;BME280;41524;35.624;139.698;2024-02-26T06:25:11;101026.00;;;10.97;29.47
53659;BME280;41524;35.624;139.698;2024-02-26T06:30:12;101029.00;;;10.52;29.02
53659;BME280;41524;35.624;139.698;2024-02-26T06:35:12;101031.00;;;10.48;28.95
53659;BME280;41524;35.624;139.698;2024-02-26T06:40:16;101020.00;;;10.52;28.83
53659;BME280;41524;35.624;139.698;2024-02-26T06:45:11;101013.00;;;10.05;29.34
53659;BME280;41524;35.624;139.698;2024-02-26T06:50:13;101020.00;;;10.83;28.88
53659;BME280;41524;35.624;139.698;2024-02-26T06:55:11;101015.00;;;9.40;30.16
53659;BME280;41524;35.624;139.698;2024-02-26T07:00:11;101037.00;;;9.95;30.35
53659;BME280;41524;35.624;139.698;2024-02-26T07:05:10;101034.00;;;9.26;30.69
53659;BME280;41524;35.624;139.698;2024-02-26T07:10:12;101041.00;;;10.65;29.49
53659;BME280;41524;35.624;139.698;2024-02-26T07:15:13;101040.00;;;14.58;26.36
53659;BME280;41524;35.624;139.698;2024-02-26T07:20:11;101026.00;;;14.01;25.67
53659;BME280;41524;35.624;139.698;2024-02-26T07:25:14;101048.00;;;8.30;30.41
53659;BME280;41524;35.624;139.698;2024-02-26T07:30:13;101073.00;;;7.54;31.93
53659;BME280;41524;35.624;139.698;2024-02-26T07:35:16;101077.00;;;6.94;33.07
53659;BME280;41524;35.624;139.698;2024-02-26T07:40:11;101083.00;;;7.18;33.50
53659;BME280;41524;35.624;139.698;2024-02-26T07:45:11;101088.00;;;7.67;34.00
53659;BME280;41524;35.624;139.698;2024-02-26T07:50:10;101103.00;;;8.21;33.62
53659;BME280;41524;35.624;139.698;2024-02-26T07:55:11;101105.00;;;6.92;34.70
53659;BME280;41524;35.624;139.698;2024-02-26T08:00:11;101120.00;;;7.02;35.52
53659;BME280;41524;35.624;139.698;2024-02-26T08:05:11;101134.00;;;6.27;35.33
53659;BME280;41524;35.624;139.698;2024-02-26T08:10:11;101140.00;;;6.35;35.76
53659;BME280;41524;35.624;139.698;2024-02-26T08:15:11;101138.00;;;6.24;35.67
53659;BME280;41524;35.624;139.698;2024-02-26T08:20:11;101146.00;;;6.17;36.29
53659;BME280;41524;35.624;139.698;2024-02-26T08:25:11;101159.00;;;6.28;35.49
53659;BME280;41524;35.624;139.698;2024-02-26T08:30:11;101157.00;;;5.73;35.64
53659;BME280;41524;35.624;139.698;2024-02-26T08:35:10;101184.00;;;5.04;36.10
53659;BME280;41524;35.624;139.698;2024-02-26T08:40:11;101196.00;;;5.20;36.24
53659;BME280;41524;35.624;139.698;2024-02-26T08:45:10;101217.00;;;5.01;36.51
53659;BME280;41524;35.624;139.698;2024-02-26T08:50:16;101221.00;;;6.28;36.09
53659;BME280;41524;35.624;139.698;2024-02-26T08:55:10;101216.00;;;5.26;36.47
53659;BME280;41524;35.624;139.698;2024-02-26T09:00:11;101220.00;;;6.15;35.67
53659;BME280;41524;35.624;139.698;2024-02-26T09:05:11;101238.00;;;5.92;35.99
53659;BME280;41524;35.624;139.698;2024-02-26T09:10:10;101229.00;;;5.06;36.68
53659;BME280;41524;35.624;139.698;2024-02-26T09:15:11;101228.00;;;5.23;36.85
53659;BME280;41524;35.624;139.698;2024-02-26T09:20:11;101226.00;;;5.20;36.47
53659;BME280;41524;35.624;139.698;2024-02-26T09:25:10;101235.00;;;4.67;36.60
53659;BME280;41524;35.624;139.698;2024-02-26T09:30:10;101240.00;;;5.03;36.09
53659;BME280;41524;35.624;139.698;2024-02-26T09:35:12;101251.00;;;5.08;35.96
53659;BME280;41524;35.624;139.698;2024-02-26T09:40:12;101260.00;;;4.53;36.35
53659;BME280;41524;35.624;139.698;2024-02-26T09:45:17;101262.00;;;5.06;35.53
53659;BME280;41524;35.624;139.698;2024-02-26T09:50:11;101252.00;;;4.63;35.94
53659;BME280;41524;35.624;139.698;2024-02-26T09:55:13;101264.00;;;5.22;35.49
53659;BME280;41524;35.624;139.698;2024-02-26T10:00:18;101247.00;;;4.47;36.60
53659;BME280;41524;35.624;139.698;2024-02-26T10:05:13;101257.00;;;4.37;36.80
53659;BME280;41524;35.624;139.698;2024-02-26T10:10:11;101238.00;;;4.69;36.84
53659;BME280;41524;35.624;139.698;2024-02-26T10:15:11;101233.00;;;4.67;36.30
53659;BME280;41524;35.624;139.698;2024-02-26T10:20:14;101242.00;;;5.20;36.02
53659;BME280;41524;35.624;139.698;2024-02-26T10:25:10;101232.00;;;4.37;36.83
53659;BME280;41524;35.624;139.698;2024-02-26T10:30:25;101234.00;;;4.43;36.94
53659;BME280;41524;35.624;139.698;2024-02-26T10:35:16;101244.00;;;4.82;36.42
53659;BME280;41524;35.624;139.698;2024-02-26T10:40:14;101262.00;;;4.88;37.07
53659;BME280;41524;35.624;139.698;2024-02-26T10:45:11;101271.00;;;4.56;37.27
53659;BME280;41524;35.624;139.698;2024-02-26T10:50:11;101274.00;;;4.75;36.86
53659;BME280;41524;35.624;139.698;2024-02-26T10:55:57;101272.00;;;4.74;38.33
53659;BME280;41524;35.624;139.698;2024-02-26T11:00:18;101273.00;;;4.73;38.51
53659;BME280;41524;35.624;139.698;2024-02-26T11:05:12;101264.00;;;4.53;40.71
53659;BME280;41524;35.624;139.698;2024-02-26T11:10:12;101278.00;;;4.85;37.11
53659;BME280;41524;35.624;139.698;2024-02-26T11:15:11;101280.00;;;4.23;37.66
53659;BME280;41524;35.624;139.698;2024-02-26T11:20:43;101274.00;;;4.76;37.60
53659;BME280;41524;35.624;139.698;2024-02-26T11:26:01;101279.00;;;4.80;36.96
53659;BME280;41524;35.624;139.698;2024-02-26T11:30:12;101288.00;;;4.08;38.04
53659;BME280;41524;35.624;139.698;2024-02-26T11:35:10;101290.00;;;4.43;38.06
53659;BME280;41524;35.624;139.698;2024-02-26T11:40:17;101288.00;;;4.16;38.31
53659;BME280;41524;35.624;139.698;2024-02-26T11:45:55;101296.00;;;3.77;39.06
53659;BME280;41524;35.624;139.698;2024-02-26T11:50:36;101297.00;;;4.06;39.36
53659;BME280;41524;35.624;139.698;2024-02-26T11:55:42;101295.00;;;3.85;39.15
53659;BME280;41524;35.624;139.698;2024-02-26T12:01:00;101288.00;;;5.09;39.02
53659;BME280;41524;35.624;139.698;2024-02-26T12:05:18;101285.00;;;4.56;38.45
53659;BME280;41524;35.624;139.698;2024-02-26T12:11:01;101281.00;;;3.75;39.27
53659;BME280;41524;35.624;139.698;2024-02-26T12:15:10;101270.00;;;4.18;38.77
53659;BME280;41524;35.624;139.698;2024-02-26T12:20:11;101267.00;;;4.18;39.33
53659;BME280;41524;35.624;139.698;2024-02-26T12:26:12;101268.00;;;3.56;39.90
53659;BME280;41524;35.624;139.698;2024-02-26T12:32:14;101252.00;;;3.27;40.39
53659;BME280;41524;35.624;139.698;2024-02-26T12:35:16;101232.00;;;2.86;40.56
53659;BME280;41524;35.624;139.698;2024-02-26T12:40:34;101215.00;;;3.71;39.94
53659;BME280;41524;35.624;139.698;2024-02-26T12:45:18;101226.00;;;3.73;40.01
53659;BME280;41524;35.624;139.698;2024-02-26T12:51:14;101224.00;;;3.73;40.34
53659;BME280;41524;35.624;139.698;2024-02-26T12:55:13;101228.00;;;2.81;40.68
53659;BME280;41524;35.624;139.698;2024-02-26T13:00:14;101233.00;;;3.52;40.78
53659;BME280;41524;35.624;139.698;2024-02-26T13:05:11;101239.00;;;3.34;39.95
53659;BME280;41524;35.624;139.698;2024-02-26T13:10:17;101244.00;;;3.34;39.89
53659;BME280;41524;35.624;139.698;2024-02-26T13:15:17;101244.00;;;3.70;40.07
53659;BME280;41524;35.624;139.698;2024-02-26T13:20:27;101251.00;;;4.54;39.54
53659;BME280;41524;35.624;139.698;2024-02-26T13:25:21;101253.00;;;4.54;39.83
53659;BME280;41524;35.624;139.698;2024-02-26T13:30:12;101255.00;;;4.03;38.90
53659;BME280;41524;35.624;139.698;2024-02-26T13:35:11;101257.00;;;4.07;38.74
53659;BME280;41524;35.624;139.698;2024-02-26T13:40:11;101249.00;;;4.13;38.90
53659;BME280;41524;35.624;139.698;2024-02-26T13:45:10;101261.00;;;3.24;39.41
53659;BME280;41524;35.624;139.698;2024-02-26T13:50:10;101258.00;;;3.70;39.11
53659;BME280;41524;35.624;139.698;2024-02-26T13:55:09;101261.00;;;3.29;39.44
53659;BME280;41524;35.624;139.698;2024-02-26T14:00:14;101250.00;;;3.92;39.19
53659;BME280;41524;35.624;139.698;2024-02-26T14:05:10;101238.00;;;3.80;39.31
53659;BME280;41524;35.624;139.698;2024-02-26T14:15:19;101231.00;;;3.37;39.35
53659;BME280;41524;35.624;139.698;2024-02-26T14:16:20;101230.00;;;3.50;39.15
53659;BME280;41524;35.624;139.698;2024-02-26T14:20:10;101238.00;;;3.12;39.14
53659;BME280;41524;35.624;139.698;2024-02-26T14:25:12;101248.00;;;3.21;39.20
53659;BME280;41524;35.624;139.698;2024-02-26T14:30:10;101248.00;;;3.60;38.42
53659;BME280;41524;35.624;139.698;2024-02-26T14:35:31;101245.00;;;3.24;38.67
53659;BME280;41524;35.624;139.698;2024-02-26T14:40:11;101237.00;;;3.80;38.44
53659;BME280;41524;35.624;139.698;2024-02-26T14:45:21;101236.00;;;3.67;38.37
53659;BME280;41524;35.624;139.698;2024-02-26T14:50:16;101234.00;;;2.90;38.90
53659;BME280;41524;35.624;139.698;2024-02-26T15:01:11;101224.00;;;2.65;38.93
53659;BME280;41524;35.624;139.698;2024-02-26T15:02:21;101222.00;;;2.84;38.90
53659;BME280;41524;35.624;139.698;2024-02-26T15:05:10;101220.00;;;2.78;39.03
53659;BME280;41524;35.624;139.698;2024-02-26T15:10:31;101212.00;;;3.35;38.12
53659;BME280;41524;35.624;139.698;2024-02-26T15:15:20;101205.00;;;3.24;37.25
53659;BME280;41524;35.624;139.698;2024-02-26T15:20:11;101203.00;;;3.21;36.88
53659;BME280;41524;35.624;139.698;2024-02-26T15:25:45;101211.00;;;2.88;37.49
53659;BME280;41524;35.624;139.698;2024-02-26T15:30:27;101214.00;;;3.62;36.48
53659;BME280;41524;35.624;139.698;2024-02-26T15:35:12;101220.00;;;3.20;36.43
53659;BME280;41524;35.624;139.698;2024-02-26T15:40:11;101223.00;;;3.62;36.47
53659;BME280;41524;35.624;139.698;2024-02-26T15:45:12;101223.00;;;2.50;37.93
53659;BME280;41524;35.624;139.698;2024-02-26T15:50:13;101220.00;;;3.36;37.60
53659;BME280;41524;35.624;139.698;2024-02-26T15:55:13;101232.00;;;3.19;37.81
53659;BME280;41524;35.624;139.698;2024-02-26T16:00:13;101225.00;;;3.33;38.36
53659;BME280;41524;35.624;139.698;2024-02-26T16:05:11;101223.00;;;2.75;39.21
53659;BME280;41524;35.624;139.698;2024-02-26T16:10:11;101222.00;;;2.90;39.09
53659;BME280;41524;35.624;139.698;2024-02-26T16:15:11;101219.00;;;3.77;38.34
53659;BME280;41524;35.624;139.698;2024-02-26T16:20:11;101213.00;;;3.47;39.03
53659;BME280;41524;35.624;139.698;2024-02-26T16:25:11;101209.00;;;2.73;39.32
53659;BME280;41524;35.624;139.698;2024-02-26T16:30:13;101211.00;;;2.82;39.73
53659;BME280;41524;35.624;139.698;2024-02-26T16:35:11;101203.00;;;3.33;38.53
53659;BME280;41524;35.624;139.698;2024-02-26T16:40:13;101190.00;;;2.94;38.66
53659;BME280;41524;35.624;139.698;2024-02-26T16:45:12;101185.00;;;2.58;38.89
53659;BME280;41524;35.624;139.698;2024-02-26T16:50:11;101188.00;;;3.49;37.57
53659;BME280;41524;35.624;139.698;2024-02-26T16:55:11;101189.00;;;2.93;38.39
53659;BME280;41524;35.624;139.698;2024-02-26T17:00:12;101188.00;;;2.92;37.62
53659;BME280;41524;35.624;139.698;2024-02-26T17:05:10;101183.00;;;3.04;38.21
53659;BME280;41524;35.624;139.698;2024-02-26T17:10:11;101181.00;;;3.51;36.86
53659;BME280;41524;35.624;139.698;2024-02-26T17:15:11;101184.00;;;3.32;36.57
53659;BME280;41524;35.624;139.698;2024-02-26T17:20:12;101185.00;;;2.99;36.18
53659;BME280;41524;35.624;139.698;2024-02-26T17:25:11;101196.00;;;2.72;36.45
53659;BME280;41524;35.624;139.698;2024-02-26T17:30:11;101196.00;;;2.69;36.60
53659;BME280;41524;35.624;139.698;2024-02-26T17:35:11;101200.00;;;2.74;36.73
53659;BME280;41524;35.624;139.698;2024-02-26T17:40:12;101211.00;;;3.72;36.28
53659;BME280;41524;35.624;139.698;2024-02-26T17:45:12;101218.00;;;2.53;36.66
53659;BME280;41524;35.624;139.698;2024-02-26T17:50:14;101217.00;;;2.58;36.76
53659;BME280;41524;35.624;139.698;2024-02-26T17:55:31;101224.00;;;2.87;36.49
53659;BME280;41524;35.624;139.698;2024-02-26T18:00:13;101222.00;;;2.36;36.65
53659;BME280;41524;35.624;139.698;2024-02-26T18:05:11;101214.00;;;2.15;36.96
53659;BME280;41524;35.624;139.698;2024-02-26T18:10:12;101213.00;;;3.07;36.27
53659;BME280;41524;35.624;139.698;2024-02-26T18:15:12;101221.00;;;3.25;35.69
53659;BME280;41524;35.624;139.698;2024-02-26T18:20:13;101225.00;;;3.19;35.67
53659;BME280;41524;35.624;139.698;2024-02-26T18:25:12;101219.00;;;3.14;35.83
53659;BME280;41524;35.624;139.698;2024-02-26T18:30:11;101224.00;;;3.35;35.98
53659;BME280;41524;35.624;139.698;2024-02-26T18:35:11;101221.00;;;2.08;36.62
53659;BME280;41524;35.624;139.698;2024-02-26T18:40:12;101218.00;;;2.64;36.12
53659;BME280;41524;35.624;139.698;2024-02-26T18:45:11;101217.00;;;2.83;36.47
53659;BME280;41524;35.624;139.698;2024-02-26T18:50:11;101217.00;;;2.32;36.81
53659;BME280;41524;35.624;139.698;2024-02-26T18:55:11;101206.00;;;2.33;36.77
53659;BME280;41524;35.624;139.698;2024-02-26T19:00:12;101206.00;;;2.47;36.98
53659;BME280;41524;35.624;139.698;2024-02-26T19:05:11;101199.00;;;2.15;37.33
53659;BME280;41524;35.624;139.698;2024-02-26T19:10:11;101195.00;;;2.20;37.19
53659;BME280;41524;35.624;139.698;2024-02-26T19:15:11;101202.00;;;2.59;36.31
53659;BME280;41524;35.624;139.698;2024-02-26T19:20:11;101194.00;;;2.34;36.59
53659;BME280;41524;35.624;139.698;2024-02-26T19:25:11;101196.00;;;2.45;36.34
53659;BME280;41524;35.624;139.698;2024-02-26T19:30:12;101215.00;;;2.48;36.00
53659;BME280;41524;35.624;139.698;2024-02-26T19:35:10;101219.00;;;1.95;36.42
53659;BME280;41524;35.624;139.698;2024-02-26T19:40:11;101235.00;;;2.38;35.81
53659;BME280;41524;35.624;139.698;2024-02-26T19:45:11;101234.00;;;2.16;35.74
53659;BME280;41524;35.624;139.698;2024-02-26T19:50:11;101246.00;;;1.76;36.02
53659;BME280;41524;35.624;139.698;2024-02-26T19:55:14;101260.00;;;1.56;35.84
53659;BME280;41524;35.624;139.698;2024-02-26T20:00:16;101253.00;;;1.93;35.34
53659;BME280;41524;35.624;139.698;2024-02-26T20:05:12;101252.00;;;1.67;35.29
53659;BME280;41524;35.624;139.698;2024-02-26T20:10:11;101267.00;;;1.73;35.43
53659;BME280;41524;35.624;139.698;2024-02-26T20:15:11;101267.00;;;1.45;35.67
53659;BME280;41524;35.624;139.698;2024-02-26T20:20:11;101275.00;;;1.58;35.36
53659;BME280;41524;35.624;139.698;2024-02-26T20:25:13;101280.00;;;2.12;35.27
53659;BME280;41524;35.624;139.698;2024-02-26T20:30:12;101290.00;;;1.61;35.91
53659;BME280;41524;35.624;139.698;2024-02-26T20:35:11;101289.00;;;1.69;35.62
53659;BME280;41524;35.624;139.698;2024-02-26T20:40:11;101302.00;;;2.09;35.24
53659;BME280;41524;35.624;139.698;2024-02-26T20:45:12;101304.00;;;2.03;35.45
53659;BME280;41524;35.624;139.698;2024-02-26T20:50:11;101311.00;;;1.43;35.99
53659;BME280;41524;35.624;139.698;2024-02-26T20:55:11;101318.00;;;2.18;35.11
53659;BME280;41524;35.624;139.698;2024-02-26T21:00:14;101315.00;;;2.59;34.71
53659;BME280;41524;35.624;139.698;2024-02-26T21:05:11;101321.00;;;1.71;35.52
53659;BME280;41524;35.624;139.698;2024-02-26T21:10:10;101331.00;;;2.24;35.40
53659;BME280;41524;35.624;139.698;2024-02-26T21:15:11;101329.00;;;2.87;34.41
53659;BME280;41524;35.624;139.698;2024-02-26T21:20:12;101333.00;;;2.11;34.64
53659;BME280;41524;35.624;139.698;2024-02-26T21:25:13;101332.00;;;2.58;34.27
53659;BME280;41524;35.624;139.698;2024-02-26T21:30:19;101334.00;;;2.86;33.77
53659;BME280;41524;35.624;139.698;2024-02-26T21:35:11;101343.00;;;2.26;34.00
53659;BME280;41524;35.624;139.698;2024-02-26T21:40:11;101347.00;;;2.40;34.23
53659;BME280;41524;35.624;139.698;2024-02-26T21:45:11;101341.00;;;2.83;33.96
53659;BME280;41524;35.624;139.698;2024-02-26T21:50:11;101344.00;;;2.90;33.68
53659;BME280;41524;35.624;139.698;2024-02-26T21:55:11;101343.00;;;2.92;34.28
53659;BME280;41524;35.624;139.698;2024-02-26T22:00:11;101344.00;;;2.88;33.44
53659;BME280;41524;35.624;139.698;2024-02-26T22:05:10;101336.00;;;2.78;34.17
53659;BME280;41524;35.624;139.698;2024-02-26T22:10:12;101326.00;;;2.32;34.11
53659;BME280;41524;35.624;139.698;2024-02-26T22:15:10;101317.00;;;2.84;34.02
53659;BME280;41524;35.624;139.698;2024-02-26T22:20:11;101323.00;;;2.66;34.81
53659;BME280;41524;35.624;139.698;2024-02-26T22:25:11;101315.00;;;3.23;34.46
53659;BME280;41524;35.624;139.698;2024-02-26T22:30:12;101317.00;;;2.92;35.79
53659;BME280;41524;35.624;139.698;2024-02-26T22:35:11;101321.00;;;2.60;36.05
53659;BME280;41524;35.624;139.698;2024-02-26T22:40:11;101327.00;;;2.42;36.39
53659;BME280;41524;35.624;139.698;2024-02-26T22:45:12;101321.00;;;2.62;35.88
53659;BME280;41524;35.624;139.698;2024-02-26T22:50:10;101326.00;;;3.49;36.87
53659;BME280;41524;35.624;139.698;2024-02-26T22:55:11;101327.00;;;4.19;36.08
53659;BME280;41524;35.624;139.698;2024-02-26T23:00:12;101346.00;;;4.38;35.09
53659;BME280;41524;35.624;139.698;2024-02-26T23:05:12;101344.00;;;4.27;35.73
53659;BME280;41524;35.624;139.698;2024-02-26T23:10:10;101332.00;;;3.67;36.54
53659;BME280;41524;35.624;139.698;2024-02-26T23:15:11;101334.00;;;4.38;35.88
53659;BME280;41524;35.624;139.698;2024-02-26T23:20:12;101359.00;;;4.39;35.27
53659;BME280;41524;35.624;139.698;2024-02-26T23:25:12;101363.00;;;4.69;35.70
53659;BME280;41524;35.624;139.698;2024-02-26T23:30:12;101342.00;;;5.22;35.90
53659;BME280;41524;35.624;139.698;2024-02-26T23:35:11;101337.00;;;5.79;35.72
53659;BME280;41524;35.624;139.698;2024-02-26T23:40:10;101326.00;;;5.08;34.15
53659;BME280;41524;35.624;139.698;2024-02-26T23:45:13;101305.00;;;6.07;34.01
53659;BME280;41524;35.624;139.698;2024-02-26T23:50:25;101334.00;;;6.46;33.13
53659;BME280;41524;35.624;139.698;2024-02-26T23:55:10;101322.00;;;7.45;32.47
